Terminal Aerodrome Forecast
Issued by NWS Charleston, WV

Current Version | Previous Version | Graphics & Text | Print | Product List | Glossary On
Versions: 1 2 3 4 5 6 7 8 9 10 11 12 13 14 15 16 17 18 19 20 21 22
000
FTUS41 KRLX 141501 AAA
TAFBKW
TAF AMD
KBKW 141501Z 1415/1512 14006KT P6SM -SHRA BKN025 OVC100
     FM141600 16005KT 4SM SHRA VCTS OVC020CB
     FM142200 14003KT P6SM VCSH OVC060
     FM150000 14003KT P6SM OVC060
     FM150700 16003KT 5SM SHRA BR BKN015=

USA.gov is the U.S. government's official web portal to all federal, state and local government web resources and services.